Time;durP1;ratioP1;P1;durP2;ratioP2;P2;SDS_P1;SDS_P2;PMS_P1;PMS_P2;Temp;Humidity;BMP_temperature;BMP_pressure;BME280_temperature;BME280_humidity;BME280_pressure;Samples;Min_cycle;Max_cycle;Signal;HPM_P1;HPM_P2
2023/05/21 00:00:51;;;;;;;49.08;22.77;;;;;;;;;;6214646;23;20001;-82
2023/05/21 00:03:16;;;;;;;34.28;18.30;;;;;;;;;;6163482;23;20074;-79
2023/05/21 00:05:43;;;;;;;39.03;19.70;;;;;;;;;;6213210;23;20444;-79
2023/05/21 00:08:09;;;;;;;39.38;18.80;;;;;;;;;;6213222;23;20008;-79
2023/05/21 00:10:35;;;;;;;38.10;18.67;;;;;;;;;;6163748;23;20012;-79
2023/05/21 00:13:00;;;;;;;40.67;17.20;;;;;;;;;;6213257;23;20067;-79
2023/05/21 00:15:25;;;;;;;35.55;17.13;;;;;;;;;;6188081;23;20076;-79
2023/05/21 00:17:51;;;;;;;34.72;15.65;;;;;;;;;;6214724;23;20408;-81
2023/05/21 00:20:17;;;;;;;32.50;16.60;;;;;;;;;;6214549;23;20001;-80
2023/05/21 00:22:42;;;;;;;36.55;17.48;;;;;;;;;;6187761;23;20007;-81
2023/05/21 00:25:08;;;;;;;33.17;16.42;;;;;;;;;;6214529;23;20005;-80
2023/05/21 00:27:34;;;;;;;37.28;15.70;;;;;;;;;;6188031;23;20001;-81
2023/05/21 00:30:00;;;;;;;31.65;14.57;;;;;;;;;;6188044;23;20213;-80
2023/05/21 00:32:25;;;;;;;31.38;15.40;;;;;;;;;;6163084;23;20028;-80
2023/05/21 00:34:51;;;;;;;28.58;14.13;;;;;;;;;;6213371;23;20005;-81
2023/05/21 00:37:16;;;;;;;31.67;14.40;;;;;;;;;;6187623;23;19996;-80
2023/05/21 00:39:42;;;;;;;31.58;14.88;;;;;;;;;;6213058;23;20005;-81
2023/05/21 00:42:07;;;;;;;33.90;15.48;;;;;;;;;;6187448;23;20005;-80
2023/05/21 00:44:32;;;;;;;39.40;15.23;;;;;;;;;;6212936;23;20000;-81
2023/05/21 00:47:00;;;;;;;32.33;14.77;;;;;;;;;;6212895;23;20009;-80
2023/05/21 00:49:26;;;;;;;34.03;15.38;;;;;;;;;;6211939;23;20344;-80
2023/05/21 00:51:51;;;;;;;33.85;15.43;;;;;;;;;;6212745;23;20011;-80
2023/05/21 00:54:17;;;;;;;32.17;14.48;;;;;;;;;;6212547;23;20000;-81
2023/05/21 00:56:43;;;;;;;32.25;15.30;;;;;;;;;;6187706;23;20085;-81
2023/05/21 00:59:08;;;;;;;35.15;16.05;;;;;;;;;;6214100;23;20005;-81
2023/05/21 01:01:35;;;;;;;34.13;16.27;;;;;;;;;;6187511;23;20000;-80
2023/05/21 01:04:01;;;;;;;30.48;15.85;;;;;;;;;;6212458;23;20051;-81
2023/05/21 01:06:27;;;;;;;32.88;16.02;;;;;;;;;;6187784;23;20005;-80
2023/05/21 01:08:55;;;;;;;39.90;16.52;;;;;;;;;;6213017;23;20095;-80
2023/05/21 01:11:20;;;;;;;35.85;16.23;;;;;;;;;;6188140;23;20012;-80
2023/05/21 01:13:46;;;;;;;36.72;15.65;;;;;;;;;;6163149;23;20012;-81
2023/05/21 01:16:12;;;;;;;35.35;16.35;;;;;;;;;;6187695;23;20412;-81
2023/05/21 01:18:37;;;;;;;39.05;18.00;;;;;;;;;;6162641;23;20051;-81
2023/05/21 01:21:03;;;;;;;34.72;17.02;;;;;;;;;;6212560;23;20004;-81
2023/05/21 01:23:29;;;;;;;40.05;17.80;;;;;;;;;;6212600;23;20028;-80
2023/05/21 01:25:54;;;;;;;45.95;17.95;;;;;;;;;;6187693;23;20005;-81
2023/05/21 01:28:20;;;;;;;44.10;18.33;;;;;;;;;;6212394;23;20012;-81
2023/05/21 01:30:46;;;;;;;42.45;19.05;;;;;;;;;;6213945;23;20005;-81
2023/05/21 01:33:17;;;;;;;40.45;18.20;;;;;;;;;;6162559;23;20012;-81
2023/05/21 01:35:50;;;;;;;40.58;18.42;;;;;;;;;;6187567;23;20001;-81
2023/05/21 01:38:23;;;;;;;41.40;18.15;;;;;;;;;;6187676;23;20004;-80
2023/05/21 01:40:49;;;;;;;40.72;18.52;;;;;;;;;;6187624;23;20023;-80
2023/05/21 01:43:14;;;;;;;39.65;18.30;;;;;;;;;;6212580;23;20444;-80
2023/05/21 01:45:41;;;;;;;40.95;17.67;;;;;;;;;;6212570;23;20396;-80
2023/05/21 01:48:07;;;;;;;35.45;17.40;;;;;;;;;;6211947;23;20004;-80
2023/05/21 01:50:33;;;;;;;38.03;17.95;;;;;;;;;;6212737;23;20390;-80
2023/05/21 01:53:02;;;;;;;41.78;18.90;;;;;;;;;;6187615;23;20008;-81
2023/05/21 01:55:30;;;;;;;43.90;17.87;;;;;;;;;;6212319;23;20000;-80
2023/05/21 01:57:55;;;;;;;43.55;18.05;;;;;;;;;;6187605;23;20236;-81
2023/05/21 02:00:21;;;;;;;37.88;17.85;;;;;;;;;;6212242;23;20345;-81
2023/05/21 02:02:47;;;;;;;39.67;18.45;;;;;;;;;;6186458;23;20012;-81
2023/05/21 02:05:13;;;;;;;42.35;18.10;;;;;;;;;;6212268;23;20453;-80
2023/05/21 02:07:39;;;;;;;37.92;16.95;;;;;;;;;;6186172;23;20035;-80
2023/05/21 02:10:05;;;;;;;40.45;16.98;;;;;;;;;;6212520;23;20483;-80
2023/05/21 02:12:30;;;;;;;40.13;17.15;;;;;;;;;;6186589;23;20317;-81
2023/05/21 02:14:56;;;;;;;45.38;18.98;;;;;;;;;;6212398;23;20008;-81
2023/05/21 02:17:23;;;;;;;38.47;18.02;;;;;;;;;;6210589;23;19996;-81
2023/05/21 02:19:51;;;;;;;39.83;18.30;;;;;;;;;;6211263;23;20008;-80
2023/05/21 02:22:16;;;;;;;34.95;17.58;;;;;;;;;;6186199;23;20008;-81
2023/05/21 02:24:42;;;;;;;41.10;17.05;;;;;;;;;;6212095;23;19997;-79
2023/05/21 02:27:09;;;;;;;40.38;17.02;;;;;;;;;;6212317;23;20005;-80
2023/05/21 02:29:35;;;;;;;43.90;17.98;;;;;;;;;;6186433;23;20001;-78
2023/05/21 02:32:00;;;;;;;38.58;16.98;;;;;;;;;;6185419;23;20062;-80
2023/05/21 02:34:29;;;;;;;42.17;18.80;;;;;;;;;;6211139;23;20076;-80
2023/05/21 02:36:55;;;;;;;43.40;19.67;;;;;;;;;;6212256;23;20008;-80
2023/05/21 02:39:20;;;;;;;50.67;21.38;;;;;;;;;;6212755;23;20005;-80
2023/05/21 02:41:46;;;;;;;54.60;22.45;;;;;;;;;;6210948;23;20013;-79
2023/05/21 02:44:11;;;;;;;56.22;23.40;;;;;;;;;;6210632;23;20001;-79
2023/05/21 02:46:37;;;;;;;59.35;22.83;;;;;;;;;;6185389;23;20095;-79
2023/05/21 02:49:02;;;;;;;66.80;27.55;;;;;;;;;;6211109;23;20019;-79
2023/05/21 02:51:28;;;;;;;57.22;24.83;;;;;;;;;;6210510;23;20425;-80
2023/05/21 02:53:53;;;;;;;64.15;27.25;;;;;;;;;;6210631;23;20006;-80
2023/05/21 02:56:19;;;;;;;63.55;28.33;;;;;;;;;;6210379;23;20080;-82
2023/05/21 02:58:44;;;;;;;65.55;28.83;;;;;;;;;;6211986;23;20011;-80
2023/05/21 03:01:10;;;;;;;68.47;26.08;;;;;;;;;;6210572;23;20016;-80
2023/05/21 03:03:36;;;;;;;61.15;26.42;;;;;;;;;;6144982;23;1600493;-79
2023/05/21 03:06:01;;;;;;;62.40;26.98;;;;;;;;;;6213306;23;20035;-80
2023/05/21 03:08:26;;;;;;;68.25;26.52;;;;;;;;;;6211914;23;20087;-80
2023/05/21 03:10:52;;;;;;;56.03;25.20;;;;;;;;;;6211989;23;20020;-80
2023/05/21 03:13:17;;;;;;;58.72;26.05;;;;;;;;;;6211605;23;20092;-79
2023/05/21 03:15:43;;;;;;;65.47;26.35;;;;;;;;;;6211309;23;20063;-79
2023/05/21 03:18:10;;;;;;;59.97;25.60;;;;;;;;;;6187961;23;20442;-79
2023/05/21 03:20:42;;;;;;;56.92;24.42;;;;;;;;;;6188856;23;19996;-79
2023/05/21 03:23:07;;;;;;;50.90;22.95;;;;;;;;;;6215055;23;20000;-79
2023/05/21 03:25:33;;;;;;;57.30;23.50;;;;;;;;;;6188649;23;20032;-79
2023/05/21 03:27:58;;;;;;;54.78;21.98;;;;;;;;;;6213774;23;20055;-80
2023/05/21 03:30:24;;;;;;;53.08;22.23;;;;;;;;;;6213208;23;20080;-80
2023/05/21 03:32:50;;;;;;;54.63;20.83;;;;;;;;;;6213797;23;20083;-81
2023/05/21 03:35:15;;;;;;;48.85;21.05;;;;;;;;;;6213878;23;20005;-81
2023/05/21 03:37:41;;;;;;;54.92;22.00;;;;;;;;;;6213798;23;20005;-80
2023/05/21 03:40:07;;;;;;;52.80;20.60;;;;;;;;;;6188448;23;20455;-81
2023/05/21 03:42:33;;;;;;;49.67;20.67;;;;;;;;;;6215283;23;20001;-80
2023/05/21 03:44:58;;;;;;;43.00;20.38;;;;;;;;;;6213120;23;20000;-80
2023/05/21 03:47:23;;;;;;;50.95;21.15;;;;;;;;;;6215779;23;20036;-81
2023/05/21 03:49:49;;;;;;;51.90;20.73;;;;;;;;;;6214841;23;20098;-80
2023/05/21 03:52:14;;;;;;;45.97;21.00;;;;;;;;;;6188328;23;20391;-80
2023/05/21 03:54:40;;;;;;;42.67;19.98;;;;;;;;;;6213848;23;20005;-80
2023/05/21 03:57:05;;;;;;;43.05;19.45;;;;;;;;;;6214800;23;20005;-80
2023/05/21 03:59:30;;;;;;;43.25;20.77;;;;;;;;;;6216093;23;20008;-80
2023/05/21 04:01:56;;;;;;;46.92;20.15;;;;;;;;;;6214997;23;20062;-79
2023/05/21 04:04:21;;;;;;;43.33;19.88;;;;;;;;;;6190531;23;20005;-79
2023/05/21 04:06:47;;;;;;;48.67;21.00;;;;;;;;;;6216019;23;19996;-80
2023/05/21 04:09:12;;;;;;;47.78;20.25;;;;;;;;;;6213439;23;20055;-80
2023/05/21 04:11:38;;;;;;;45.67;19.50;;;;;;;;;;6188048;23;20000;-79
2023/05/21 04:14:03;;;;;;;44.53;19.08;;;;;;;;;;6214124;23;20008;-80
2023/05/21 04:16:28;;;;;;;42.03;19.10;;;;;;;;;;6188323;23;20035;-79
2023/05/21 04:18:54;;;;;;;50.83;19.00;;;;;;;;;;6188251;23;20011;-79
2023/05/21 04:21:20;;;;;;;44.38;19.35;;;;;;;;;;6163462;23;20048;-79
2023/05/21 04:23:45;;;;;;;53.30;18.92;;;;;;;;;;6214485;23;20012;-79
2023/05/21 04:26:11;;;;;;;39.80;18.95;;;;;;;;;;6215238;23;20001;-80
2023/05/21 04:28:40;;;;;;;42.63;19.77;;;;;;;;;;6187952;23;20012;-81
2023/05/21 04:31:07;;;;;;;40.83;18.73;;;;;;;;;;6213190;23;20079;-81
2023/05/21 04:33:34;;;;;;;37.80;18.95;;;;;;;;;;6214462;23;20023;-81
2023/05/21 04:36:00;;;;;;;37.53;17.27;;;;;;;;;;6214657;23;20008;-81
2023/05/21 04:38:25;;;;;;;39.80;18.50;;;;;;;;;;6214425;23;20496;-81
2023/05/21 04:40:51;;;;;;;43.88;18.52;;;;;;;;;;6218112;23;20005;-79
2023/05/21 04:43:16;;;;;;;43.42;19.00;;;;;;;;;;6216537;23;19997;-81
2023/05/21 04:45:42;;;;;;;42.03;19.08;;;;;;;;;;6213016;23;20005;-81
2023/05/21 04:48:08;;;;;;;34.17;17.65;;;;;;;;;;6213703;23;20000;-79
2023/05/21 04:50:33;;;;;;;42.90;17.83;;;;;;;;;;6167841;23;20004;-79
2023/05/21 04:52:58;;;;;;;39.90;19.17;;;;;;;;;;6218558;23;20008;-78
2023/05/21 04:55:24;;;;;;;42.70;19.00;;;;;;;;;;6194618;23;20004;-78
2023/05/21 04:57:50;;;;;;;42.30;18.23;;;;;;;;;;6220631;23;19997;-79
2023/05/21 05:00:16;;;;;;;38.85;17.73;;;;;;;;;;6170868;23;20012;-79
2023/05/21 05:02:41;;;;;;;38.92;18.35;;;;;;;;;;6218029;23;20012;-78
2023/05/21 05:05:07;;;;;;;40.17;18.13;;;;;;;;;;6221438;23;20502;-79
2023/05/21 05:07:33;;;;;;;36.88;17.75;;;;;;;;;;6198308;23;20001;-79
2023/05/21 05:09:58;;;;;;;40.30;17.90;;;;;;;;;;6196434;23;20404;-79
2023/05/21 05:12:23;;;;;;;34.65;17.25;;;;;;;;;;6221915;23;20035;-79
2023/05/21 05:14:49;;;;;;;37.00;16.70;;;;;;;;;;6220130;23;20001;-79
2023/05/21 05:17:14;;;;;;;33.90;16.83;;;;;;;;;;6219379;23;20007;-81
2023/05/21 05:19:40;;;;;;;31.65;16.20;;;;;;;;;;6222915;23;19997;-78
2023/05/21 05:22:05;;;;;;;38.25;16.73;;;;;;;;;;6221064;23;20001;-79
2023/05/21 05:24:31;;;;;;;34.70;16.73;;;;;;;;;;6216038;23;20001;-79
2023/05/21 05:26:56;;;;;;;37.47;16.80;;;;;;;;;;6214301;23;20023;-79
2023/05/21 05:29:22;;;;;;;32.80;15.63;;;;;;;;;;6216332;23;20420;-79
2023/05/21 05:31:47;;;;;;;36.20;16.65;;;;;;;;;;6215846;23;20410;-80
2023/05/21 05:34:13;;;;;;;35.83;16.60;;;;;;;;;;6188798;23;20015;-80
2023/05/21 05:36:38;;;;;;;38.45;16.90;;;;;;;;;;6188645;23;20004;-79
2023/05/21 05:39:04;;;;;;;40.63;16.70;;;;;;;;;;6217200;23;20005;-79
2023/05/21 05:41:29;;;;;;;33.25;16.50;;;;;;;;;;6216998;23;20001;-79
2023/05/21 05:43:55;;;;;;;47.80;17.95;;;;;;;;;;6215163;23;20007;-80
2023/05/21 05:46:20;;;;;;;38.65;16.95;;;;;;;;;;6212620;23;20068;-80
2023/05/21 05:48:46;;;;;;;36.80;17.75;;;;;;;;;;6213611;23;20344;-80
2023/05/21 05:51:11;;;;;;;36.58;17.23;;;;;;;;;;6187238;23;20011;-80
2023/05/21 05:53:37;;;;;;;35.63;17.00;;;;;;;;;;6187719;23;20013;-81
2023/05/21 05:56:03;;;;;;;33.10;16.80;;;;;;;;;;6211717;23;20467;-80
2023/05/21 05:58:31;;;;;;;35.35;17.40;;;;;;;;;;6163539;23;20067;-80
2023/05/21 06:00:57;;;;;;;33.03;16.40;;;;;;;;;;6212974;23;20027;-81
2023/05/21 06:03:22;;;;;;;32.10;17.10;;;;;;;;;;6212359;23;20024;-80
2023/05/21 06:05:48;;;;;;;36.10;17.00;;;;;;;;;;6213552;23;20321;-80
2023/05/21 06:08:14;;;;;;;38.22;18.40;;;;;;;;;;6162966;23;19999;-81
2023/05/21 06:10:40;;;;;;;37.58;16.40;;;;;;;;;;6211779;23;20004;-80
2023/05/21 06:13:05;;;;;;;34.38;16.50;;;;;;;;;;6187190;23;20008;-81
2023/05/21 06:15:30;;;;;;;34.47;16.67;;;;;;;;;;6213540;23;20031;-80
2023/05/21 06:17:56;;;;;;;38.10;16.00;;;;;;;;;;6187337;23;20086;-80
2023/05/21 06:20:21;;;;;;;33.53;16.65;;;;;;;;;;6187419;23;20009;-81
2023/05/21 06:22:47;;;;;;;39.00;16.30;;;;;;;;;;6212038;23;20139;-80
2023/05/21 06:25:13;;;;;;;33.40;16.70;;;;;;;;;;6211782;23;20009;-80
2023/05/21 06:27:38;;;;;;;36.22;16.98;;;;;;;;;;6211983;23;20004;-81
2023/05/21 06:30:04;;;;;;;46.47;18.40;;;;;;;;;;6187235;23;20502;-81
2023/05/21 06:32:30;;;;;;;34.92;17.77;;;;;;;;;;6211748;23;20428;-81
2023/05/21 06:34:55;;;;;;;34.15;17.17;;;;;;;;;;6213522;23;20013;-80
2023/05/21 06:37:21;;;;;;;37.72;16.67;;;;;;;;;;6212140;23;20001;-81
2023/05/21 06:39:46;;;;;;;35.58;17.30;;;;;;;;;;6213594;23;20012;-81
2023/05/21 06:42:12;;;;;;;33.28;16.92;;;;;;;;;;6212272;23;20005;-81
2023/05/21 06:44:37;;;;;;;35.55;17.38;;;;;;;;;;6212048;23;20146;-80
2023/05/21 06:47:02;;;;;;;32.05;16.48;;;;;;;;;;6186878;23;20514;-79
2023/05/21 06:49:28;;;;;;;27.80;15.57;;;;;;;;;;6213423;23;20416;-81
2023/05/21 06:51:53;;;;;;;26.10;15.07;;;;;;;;;;6187031;23;20074;-80
2023/05/21 06:54:19;;;;;;;33.03;14.55;;;;;;;;;;6215655;23;20054;-79
2023/05/21 06:56:44;;;;;;;26.45;14.77;;;;;;;;;;6213871;23;20447;-79
2023/05/21 06:59:10;;;;;;;28.23;14.60;;;;;;;;;;6214133;23;20011;-80
2023/05/21 07:01:35;;;;;;;21.83;13.15;;;;;;;;;;6215293;23;20000;-80
2023/05/21 07:04:01;;;;;;;24.65;13.52;;;;;;;;;;6188827;23;20009;-80
2023/05/21 07:06:26;;;;;;;30.48;14.38;;;;;;;;;;6188580;23;20000;-78
2023/05/21 07:08:51;;;;;;;22.20;12.77;;;;;;;;;;6188860;23;20000;-79
2023/05/21 07:11:17;;;;;;;26.67;13.10;;;;;;;;;;6215300;23;20011;-79
2023/05/21 07:13:42;;;;;;;24.38;13.60;;;;;;;;;;6213642;23;20012;-80
2023/05/21 07:16:08;;;;;;;28.10;12.68;;;;;;;;;;6215330;23;20039;-79
2023/05/21 07:18:33;;;;;;;23.33;13.02;;;;;;;;;;6212418;23;20016;-79
2023/05/21 07:20:58;;;;;;;19.88;12.57;;;;;;;;;;6214576;23;20436;-80
2023/05/21 07:23:24;;;;;;;21.02;11.88;;;;;;;;;;6188577;23;20147;-80
2023/05/21 07:25:49;;;;;;;16.67;11.10;;;;;;;;;;6214966;23;19997;-80
2023/05/21 07:28:15;;;;;;;19.98;12.15;;;;;;;;;;6213640;23;20008;-79
2023/05/21 07:30:40;;;;;;;23.27;12.40;;;;;;;;;;6214186;23;20428;-80
2023/05/21 07:33:06;;;;;;;17.45;10.48;;;;;;;;;;6188163;23;20428;-78
2023/05/21 07:35:31;;;;;;;24.85;12.82;;;;;;;;;;6211647;23;20001;-79
2023/05/21 07:37:56;;;;;;;17.70;11.95;;;;;;;;;;6211753;23;20007;-79
2023/05/21 07:40:22;;;;;;;21.90;11.73;;;;;;;;;;6186957;23;20424;-79
2023/05/21 07:42:47;;;;;;;17.33;11.40;;;;;;;;;;6212290;23;20036;-80
2023/05/21 07:45:13;;;;;;;22.85;10.82;;;;;;;;;;6213544;23;20020;-80
2023/05/21 07:47:38;;;;;;;19.65;12.35;;;;;;;;;;6186821;23;20436;-79
2023/05/21 07:50:06;;;;;;;16.35;11.95;;;;;;;;;;6213743;23;19997;-80
2023/05/21 07:52:31;;;;;;;20.63;11.40;;;;;;;;;;6213480;23;20391;-78
2023/05/21 07:54:56;;;;;;;16.65;11.13;;;;;;;;;;6213812;23;20004;-79
2023/05/21 07:57:22;;;;;;;21.02;11.73;;;;;;;;;;6214860;23;20000;-77
2023/05/21 07:59:47;;;;;;;17.80;11.10;;;;;;;;;;6215155;23;20329;-78
2023/05/21 08:02:13;;;;;;;22.00;11.20;;;;;;;;;;6214943;23;20012;-78
2023/05/21 08:04:38;;;;;;;17.90;11.73;;;;;;;;;;6212880;23;20003;-78
2023/05/21 08:07:04;;;;;;;16.27;11.10;;;;;;;;;;6215453;23;20076;-78
2023/05/21 08:09:31;;;;;;;20.02;11.82;;;;;;;;;;6214765;23;20054;-78
2023/05/21 08:11:56;;;;;;;18.60;10.63;;;;;;;;;;6214988;23;20430;-78
2023/05/21 08:14:22;;;;;;;15.00;10.05;;;;;;;;;;6214761;23;20059;-78
2023/05/21 08:16:47;;;;;;;17.33;10.63;;;;;;;;;;6214687;23;20039;-78
2023/05/21 08:19:12;;;;;;;17.33;9.70;;;;;;;;;;6213715;23;20422;-78
2023/05/21 08:21:38;;;;;;;16.58;9.10;;;;;;;;;;6212827;23;20011;-78
2023/05/21 08:24:03;;;;;;;11.10;8.20;;;;;;;;;;6214735;23;20341;-78
2023/05/21 08:26:29;;;;;;;15.45;8.32;;;;;;;;;;6214368;23;20443;-79
2023/05/21 08:28:55;;;;;;;14.75;7.90;;;;;;;;;;6188215;23;20082;-79
2023/05/21 08:31:20;;;;;;;15.63;8.18;;;;;;;;;;6187980;23;20043;-78
2023/05/21 08:33:52;;;;;;;11.82;7.68;;;;;;;;;;6214188;23;20614;-79
2023/05/21 08:36:18;;;;;;;16.25;8.43;;;;;;;;;;6187857;23;20385;-79
2023/05/21 08:38:43;;;;;;;11.85;7.90;;;;;;;;;;6214241;23;20004;-79
2023/05/21 08:41:10;;;;;;;14.80;8.07;;;;;;;;;;6187781;23;20011;-80
2023/05/21 08:43:36;;;;;;;13.52;8.00;;;;;;;;;;6214474;23;20001;-80
2023/05/21 08:46:02;;;;;;;13.45;8.27;;;;;;;;;;6214200;23;20062;-79
2023/05/21 08:48:27;;;;;;;16.02;8.25;;;;;;;;;;6212475;23;20011;-79
2023/05/21 08:50:53;;;;;;;14.23;8.18;;;;;;;;;;6162822;23;20009;-78
2023/05/21 08:53:20;;;;;;;11.75;7.93;;;;;;;;;;6187936;23;20000;-79
2023/05/21 08:55:46;;;;;;;15.60;8.25;;;;;;;;;;6214337;23;20008;-79
2023/05/21 08:58:12;;;;;;;12.77;8.00;;;;;;;;;;6213069;23;19996;-79
2023/05/21 09:00:37;;;;;;;11.45;7.72;;;;;;;;;;6187956;23;20320;-80
2023/05/21 09:03:06;;;;;;;11.77;8.20;;;;;;;;;;6187223;23;20070;-79
2023/05/21 09:05:37;;;;;;;13.50;8.10;;;;;;;;;;6188417;23;20023;-78
2023/05/21 09:08:10;;;;;;;13.23;7.50;;;;;;;;;;6163991;23;20345;-78
2023/05/21 09:10:38;;;;;;;12.13;7.90;;;;;;;;;;6213084;23;20000;-79
2023/05/21 09:13:04;;;;;;;12.48;7.85;;;;;;;;;;6162967;23;20084;-78
2023/05/21 09:15:30;;;;;;;13.63;7.38;;;;;;;;;;6162883;23;20016;-79
2023/05/21 09:17:56;;;;;;;10.00;6.95;;;;;;;;;;6213750;23;20107;-79
2023/05/21 09:20:25;;;;;;;10.65;7.07;;;;;;;;;;6212764;23;20020;-79
2023/05/21 09:22:51;;;;;;;10.02;7.00;;;;;;;;;;6212740;23;20072;-78
2023/05/21 09:25:22;;;;;;;12.02;7.40;;;;;;;;;;6162824;23;20427;-78
2023/05/21 09:27:48;;;;;;;13.05;7.18;;;;;;;;;;6212510;23;20011;-78
2023/05/21 09:30:14;;;;;;;12.70;7.47;;;;;;;;;;6214875;23;19997;-79
2023/05/21 09:32:40;;;;;;;10.43;7.43;;;;;;;;;;6213731;23;20118;-78
2023/05/21 09:35:12;;;;;;;9.25;6.72;;;;;;;;;;6187705;23;20419;-79
2023/05/21 09:37:45;;;;;;;11.18;6.85;;;;;;;;;;6188648;23;20020;-78
2023/05/21 09:40:14;;;;;;;15.00;7.72;;;;;;;;;;6188155;23;20013;-80
2023/05/21 09:42:46;;;;;;;8.73;7.32;;;;;;;;;;6213783;23;20004;-78
2023/05/21 09:45:16;;;;;;;12.18;7.20;;;;;;;;;;6188020;23;20001;-79
2023/05/21 09:47:42;;;;;;;12.57;7.72;;;;;;;;;;6163248;23;20732;-79
2023/05/21 09:50:09;;;;;;;12.13;6.60;;;;;;;;;;6212497;23;20001;-77
2023/05/21 09:52:36;;;;;;;11.27;7.18;;;;;;;;;;6212241;23;20012;-76
2023/05/21 09:55:05;;;;;;;11.90;6.72;;;;;;;;;;6212619;23;20021;-80
2023/05/21 09:57:31;;;;;;;13.55;7.63;;;;;;;;;;6187140;23;20423;-79
2023/05/21 09:59:57;;;;;;;11.77;7.20;;;;;;;;;;6187459;23;20009;-80
2023/05/21 10:02:23;;;;;;;13.98;7.43;;;;;;;;;;6162250;23;20008;-80
2023/05/21 10:04:49;;;;;;;13.20;6.60;;;;;;;;;;6187913;23;20004;-79
2023/05/21 10:07:17;;;;;;;11.75;6.78;;;;;;;;;;6187149;23;20088;-77
2023/05/21 10:09:43;;;;;;;11.80;7.40;;;;;;;;;;6187546;23;20352;-78
2023/05/21 10:12:09;;;;;;;9.82;7.10;;;;;;;;;;6212305;23;20005;-80
2023/05/21 10:14:35;;;;;;;11.07;7.35;;;;;;;;;;6187467;23;20099;-79
2023/05/21 10:17:00;;;;;;;12.80;7.47;;;;;;;;;;6211868;23;20004;-80
2023/05/21 10:19:25;;;;;;;15.07;7.60;;;;;;;;;;6212310;23;19997;-80
2023/05/21 10:21:51;;;;;;;15.35;7.47;;;;;;;;;;6186924;23;20004;-78
2023/05/21 10:24:16;;;;;;;15.35;7.43;;;;;;;;;;6186941;23;20086;-79
2023/05/21 10:26:42;;;;;;;12.18;7.32;;;;;;;;;;6186958;23;20001;-79
2023/05/21 10:29:07;;;;;;;11.82;7.68;;;;;;;;;;6212182;23;20001;-79
2023/05/21 10:31:33;;;;;;;11.15;8.07;;;;;;;;;;6186614;23;20397;-78
2023/05/21 10:33:59;;;;;;;12.65;7.78;;;;;;;;;;6212287;23;20412;-78
2023/05/21 10:36:25;;;;;;;12.88;7.32;;;;;;;;;;6211919;23;20000;-78
2023/05/21 10:38:50;;;;;;;14.57;8.32;;;;;;;;;;6186811;23;20063;-78
2023/05/21 10:41:17;;;;;;;12.85;7.82;;;;;;;;;;6187418;23;20008;-78
2023/05/21 10:43:57;;;;;;;9.45;7.43;;;;;;;;;;6187667;23;20428;-79
2023/05/21 10:46:23;;;;;;;11.10;7.82;;;;;;;;;;6213586;23;20024;-79
2023/05/21 10:48:51;;;;;;;13.23;7.00;;;;;;;;;;6213271;23;20425;-78
2023/05/21 10:51:25;;;;;;;15.07;7.22;;;;;;;;;;6212129;23;20005;-78
2023/05/21 10:53:50;;;;;;;13.25;7.70;;;;;;;;;;6187194;23;20008;-79
2023/05/21 10:56:33;;;;;;;12.30;8.15;;;;;;;;;;6213292;23;20008;-78
2023/05/21 10:59:06;;;;;;;11.05;7.20;;;;;;;;;;6212988;23;20024;-79
2023/05/21 11:01:34;;;;;;;15.05;7.47;;;;;;;;;;6212221;23;20397;-78
2023/05/21 11:03:59;;;;;;;11.05;7.53;;;;;;;;;;6212253;23;20015;-79
2023/05/21 11:06:25;;;;;;;12.20;7.10;;;;;;;;;;6163516;23;19996;-79
2023/05/21 11:08:52;;;;;;;12.82;7.40;;;;;;;;;;6211823;23;20055;-78
2023/05/21 11:11:42;;;;;;;11.80;7.53;;;;;;;;;;6211922;23;20488;-78
2023/05/21 11:14:31;;;;;;;10.35;7.30;;;;;;;;;;6211722;23;20091;-78
2023/05/21 11:16:58;;;;;;;10.25;7.50;;;;;;;;;;6211928;23;20431;-78
2023/05/21 11:19:38;;;;;;;9.15;7.07;;;;;;;;;;6187019;23;20443;-80
2023/05/21 11:22:23;;;;;;;11.65;7.35;;;;;;;;;;6213315;23;20075;-78
2023/05/21 11:24:48;;;;;;;11.90;6.90;;;;;;;;;;6187018;23;20043;-79
2023/05/21 11:27:34;;;;;;;17.67;6.75;;;;;;;;;;6213839;23;20001;-78
2023/05/21 11:30:03;;;;;;;13.90;7.00;;;;;;;;;;6211794;23;20044;-79
2023/05/21 11:32:28;;;;;;;15.53;8.03;;;;;;;;;;6211644;23;20011;-79
2023/05/21 11:34:55;;;;;;;16.45;8.02;;;;;;;;;;6211618;23;20000;-78
2023/05/21 11:37:26;;;;;;;10.18;7.13;;;;;;;;;;6186662;23;20375;-79
2023/05/21 11:39:52;;;;;;;15.38;6.95;;;;;;;;;;6213441;23;20030;-78
2023/05/21 11:42:33;;;;;;;12.65;7.07;;;;;;;;;;6188327;23;20009;-79
2023/05/21 11:45:00;;;;;;;13.13;7.40;;;;;;;;;;6189390;23;20001;-79
2023/05/21 11:47:26;;;;;;;14.70;7.32;;;;;;;;;;6213430;23;20051;-78
2023/05/21 11:49:52;;;;;;;12.05;7.07;;;;;;;;;;6215056;23;20032;-79
2023/05/21 11:52:20;;;;;;;15.27;7.20;;;;;;;;;;6213258;23;20005;-78
2023/05/21 11:54:49;;;;;;;12.57;7.30;;;;;;;;;;6213561;23;20416;-79
2023/05/21 11:57:15;;;;;;;17.20;7.35;;;;;;;;;;6164133;23;20004;-79
2023/05/21 11:59:41;;;;;;;16.63;7.15;;;;;;;;;;6213270;23;20083;-79
2023/05/21 12:02:06;;;;;;;11.68;7.03;;;;;;;;;;6188472;23;20337;-79
2023/05/21 12:04:36;;;;;;;11.55;7.25;;;;;;;;;;6214706;23;20384;-78
2023/05/21 12:07:07;;;;;;;9.95;6.88;;;;;;;;;;6213383;23;20387;-78
2023/05/21 12:09:46;;;;;;;14.65;7.40;;;;;;;;;;6213402;23;20000;-78
2023/05/21 12:12:13;;;;;;;13.98;6.72;;;;;;;;;;6212895;23;20001;-78
2023/05/21 12:14:38;;;;;;;13.77;7.28;;;;;;;;;;6188476;23;20083;-77
2023/05/21 12:17:05;;;;;;;10.07;7.28;;;;;;;;;;6213170;23;20000;-78
2023/05/21 12:19:35;;;;;;;11.15;7.05;;;;;;;;;;6188440;23;20055;-78
2023/05/21 12:22:04;;;;;;;12.18;7.30;;;;;;;;;;6213284;23;20003;-78
2023/05/21 12:24:30;;;;;;;9.88;6.82;;;;;;;;;;6213882;23;20368;-78
2023/05/21 12:27:00;;;;;;;12.07;7.47;;;;;;;;;;6214216;23;19997;-78
2023/05/21 12:29:32;;;;;;;11.77;7.18;;;;;;;;;;6188528;23;20009;-77
2023/05/21 12:32:01;;;;;;;16.42;7.35;;;;;;;;;;6163416;23;20004;-78
2023/05/21 12:34:40;;;;;;;11.23;7.30;;;;;;;;;;6187979;23;20023;-78
2023/05/21 12:37:06;;;;;;;11.73;6.88;;;;;;;;;;6163724;23;20005;-77
2023/05/21 12:39:52;;;;;;;14.75;6.75;;;;;;;;;;6212967;23;20000;-78
2023/05/21 12:42:34;;;;;;;10.90;6.50;;;;;;;;;;6214055;23;20024;-78
2023/05/21 12:45:00;;;;;;;11.00;7.10;;;;;;;;;;6213400;23;20008;-78
2023/05/21 12:47:26;;;;;;;17.95;7.07;;;;;;;;;;6188171;23;19993;-77
2023/05/21 12:50:03;;;;;;;13.48;7.38;;;;;;;;;;6212619;23;20001;-78
2023/05/21 12:52:29;;;;;;;11.80;7.00;;;;;;;;;;6214121;23;19996;-77
2023/05/21 12:54:55;;;;;;;11.10;6.50;;;;;;;;;;6187820;23;20004;-78
2023/05/21 12:57:22;;;;;;;11.77;7.03;;;;;;;;;;6212783;23;20354;-77
2023/05/21 12:59:55;;;;;;;11.98;7.13;;;;;;;;;;6213158;23;20005;-77
2023/05/21 13:02:39;;;;;;;15.18;7.13;;;;;;;;;;6214399;23;20375;-77
2023/05/21 13:05:09;;;;;;;12.07;6.22;;;;;;;;;;6189380;23;20005;-77
2023/05/21 13:07:36;;;;;;;12.35;6.50;;;;;;;;;;6214260;23;20001;-77
2023/05/21 13:10:03;;;;;;;11.63;6.93;;;;;;;;;;6213942;23;20099;-78
2023/05/21 13:12:29;;;;;;;11.80;6.53;;;;;;;;;;6212817;23;20059;-79
2023/05/21 13:14:56;;;;;;;15.48;7.30;;;;;;;;;;6212692;23;20039;-78
2023/05/21 13:17:22;;;;;;;13.40;6.82;;;;;;;;;;6212669;23;20000;-77
2023/05/21 13:20:13;;;;;;;11.48;6.15;;;;;;;;;;6188059;23;20090;-77
2023/05/21 13:22:45;;;;;;;10.10;6.07;;;;;;;;;;6212594;23;20004;-77
2023/05/21 13:25:11;;;;;;;10.25;6.30;;;;;;;;;;6212128;23;20006;-77
2023/05/21 13:27:37;;;;;;;15.25;6.28;;;;;;;;;;6187901;23;20058;-78
2023/05/21 13:30:04;;;;;;;11.15;6.20;;;;;;;;;;6212878;23;20013;-78
2023/05/21 13:32:30;;;;;;;12.60;6.38;;;;;;;;;;6212492;23;20000;-78
2023/05/21 13:34:55;;;;;;;10.23;6.35;;;;;;;;;;6213716;23;20340;-78
2023/05/21 13:37:21;;;;;;;12.48;6.45;;;;;;;;;;6214397;23;20091;-78
2023/05/21 13:39:46;;;;;;;11.52;6.72;;;;;;;;;;6211988;23;20106;-78
2023/05/21 13:42:12;;;;;;;8.50;5.97;;;;;;;;;;6214471;23;20412;-78
2023/05/21 13:44:37;;;;;;;13.65;6.85;;;;;;;;;;6213798;23;20005;-78
2023/05/21 13:47:03;;;;;;;10.38;6.55;;;;;;;;;;6212236;23;20005;-78
2023/05/21 13:49:29;;;;;;;10.40;6.13;;;;;;;;;;6212342;23;20079;-77
2023/05/21 13:51:55;;;;;;;12.32;5.25;;;;;;;;;;6213807;23;20466;-78
2023/05/21 13:54:20;;;;;;;8.07;5.22;;;;;;;;;;6187000;23;20493;-78
2023/05/21 13:56:46;;;;;;;10.82;5.57;;;;;;;;;;6212472;23;20692;-79
2023/05/21 13:59:11;;;;;;;12.85;5.03;;;;;;;;;;6213880;23;20420;-79
2023/05/21 14:01:36;;;;;;;12.10;5.30;;;;;;;;;;6212180;23;20001;-79
2023/05/21 14:04:04;;;;;;;11.75;5.18;;;;;;;;;;6213819;23;20084;-77
2023/05/21 14:06:30;;;;;;;10.13;5.03;;;;;;;;;;6213833;23;20007;-77
2023/05/21 14:08:57;;;;;;;9.95;5.18;;;;;;;;;;6212514;23;20646;-77
2023/05/21 14:11:22;;;;;;;13.65;6.13;;;;;;;;;;6212205;23;20004;-78
2023/05/21 14:13:48;;;;;;;9.40;5.15;;;;;;;;;;6213744;23;20094;-76
2023/05/21 14:16:13;;;;;;;11.18;5.57;;;;;;;;;;6162492;23;20082;-77
2023/05/21 14:18:39;;;;;;;10.30;5.25;;;;;;;;;;6212234;23;20005;-77
2023/05/21 14:21:06;;;;;;;12.90;6.28;;;;;;;;;;6212021;23;20494;-77